Rescue Uni — LF5005 — position and weather

sailwx.info

Track history (hours):
 
Tides and Currents Weather Stations Pressure Air Temp Water Temp Dewpoint Dewpoint Depression Visibility Wind Speed Wind Dir Waves Ship Positions

Rescue Uni

Last reported at 2015-Jul-07 12:33 UTC. Time now 2015-Jul-07 13:10 UTC.
Position N 63°26' E 010°23'.

; draft 0.7 m.

Type: SAR. MMSI: 257964900.

Date/timePositionNaut miles runAvg speedWind from/ knotsBaromVisibWave heightAir tempDewpointWater temp
2015-Jul-07 12:33N 63°26' E 010°23'0 0.0
2015-Jul-07 11:33N 63°26' E 010°23'0 0.0
2015-Jul-07 10:34N 63°26' E 010°23'0 0.0
2015-Jul-07 09:33N 63°26' E 010°23'0 0.0
2015-Jul-07 08:33N 63°26' E 010°23'0 0.0
2015-Jul-07 07:33N 63°26' E 010°23'0 0.0
2015-Jul-07 06:33N 63°26' E 010°23'0 0.0
2015-Jul-07 05:34N 63°26' E 010°23'0 0.0
2015-Jul-07 04:34N 63°26' E 010°23'0 0.0
2015-Jul-07 03:34N 63°26' E 010°23'0 0.0
2015-Jul-07 02:33N 63°26' E 010°23'0 0.0
2015-Jul-07 01:34N 63°26' E 010°23'0 0.0
2015-Jul-07 00:34N 63°26' E 010°23'0 0.0
2015-Jul-06 23:34N 63°26' E 010°23'0 0.0
2015-Jul-06 22:33N 63°26' E 010°23'0 0.0
2015-Jul-06 21:33N 63°26' E 010°23'0 0.0
2015-Jul-06 20:34N 63°26' E 010°23'0 0.0
2015-Jul-06 19:34N 63°26' E 010°23'0 0.0
2015-Jul-06 18:34N 63°26' E 010°23'1 1.0
2015-Jul-06 17:34N 63°27' E 010°22'1 1.0
2015-Jul-06 16:33N 63°26' E 010°23'0 0.0
2015-Jul-06 15:33N 63°26' E 010°23'0 0.0
2015-Jul-06 14:33N 63°26' E 010°23'0 0.0
2015-Jul-06 13:33N 63°26' E 010°23'0 0.0
2015-Jul-06 12:33N 63°26' E 010°23'0 0.1
2015-Jul-06 11:33N 63°26' E 010°22'1 1.4
2015-Jul-06 10:33N 63°27' E 010°25'0 0.4
2015-Jul-06 09:34N 63°27' E 010°25'1 1.4
2015-Jul-06 08:34N 63°26' E 010°23'0 0.0
2015-Jul-06 07:34N 63°26' E 010°23'0 0.0
2015-Jul-06 06:34N 63°26' E 010°23'0 0.0
2015-Jul-06 05:33N 63°26' E 010°23'0 0.0
2015-Jul-06 04:33N 63°26' E 010°23'0 0.0
2015-Jul-06 03:34N 63°26' E 010°23'0 0.0
2015-Jul-06 02:34N 63°26' E 010°23'0 0.0
2015-Jul-06 01:34N 63°26' E 010°23'0 0.0
2015-Jul-06 00:34N 63°26' E 010°23'0 0.0
2015-Jul-05 23:33N 63°26' E 010°23'0 0.0
2015-Jul-05 22:34N 63°26' E 010°23'0 0.0
2015-Jul-05 21:34N 63°26' E 010°23'10 9.7
2015-Jul-05 20:33N 63°21' E 010°04'3 2.9
2015-Jul-05 19:33N 63°24' E 010°02'6 6.4
2015-Jul-05 18:34N 63°29' E 009°56'6 5.8
2015-Jul-05 17:34N 63°35' E 009°50'5 4.6
2015-Jul-05 16:29N 63°39' E 009°47'1718.9
2015-Jul-05 15:33N 63°28' E 010°16'4 3.6
2015-Jul-05 14:33N 63°26' E 010°23'0 0.0
2015-Jul-05 13:33N 63°26' E 010°23'0 0.0
2015-Jul-05 12:33N 63°26' E 010°23'0 0.0
2015-Jul-05 11:33N 63°26' E 010°23'0 0.0
2015-Jul-05 10:33N 63°26' E 010°23'0 0.0
2015-Jul-05 09:33N 63°26' E 010°23'0 0.0
2015-Jul-05 08:33N 63°26' E 010°23'0 0.0
2015-Jul-05 07:33N 63°26' E 010°23'0 0.0
2015-Jul-05 06:33N 63°26' E 010°23'0 0.0
2015-Jul-05 05:33N 63°26' E 010°23'0 0.0
2015-Jul-05 04:33N 63°26' E 010°23'0 0.0
2015-Jul-05 03:33N 63°26' E 010°23'0 0.0
2015-Jul-05 02:33N 63°26' E 010°23'0 0.0
2015-Jul-05 01:33N 63°26' E 010°23'1514.6
2015-Jul-05 00:33N 63°38' E 010°41'14 1.8
2015-Jul-04 16:32N 63°48' E 011°03'2828.6
2015-Jul-04 15:33N 63°26' E 010°23'0 0.5
2015-Jul-04 14:33N 63°26' E 010°23'0 0.0
2015-Jul-04 13:33N 63°26' E 010°23'0 0.0
2015-Jul-04 12:33N 63°26' E 010°23'0 0.0
2015-Jul-04 11:33N 63°26' E 010°23'0 0.0
2015-Jul-04 10:33N 63°26' E 010°23'0 0.0
2015-Jul-04 09:33N 63°26' E 010°23'0 0.0
2015-Jul-04 08:33N 63°26' E 010°23'0 0.0
2015-Jul-04 07:33N 63°26' E 010°23'0 0.0
2015-Jul-04 06:33N 63°26' E 010°23'0 0.0
2015-Jul-04 05:33N 63°26' E 010°23'0 0.0
2015-Jul-04 04:33N 63°26' E 010°23'0 0.0
2015-Jul-04 03:33N 63°26' E 010°23'0 0.0
2015-Jul-04 02:33N 63°26' E 010°23'0 0.0
2015-Jul-04 01:33N 63°26' E 010°23'0 0.0
2015-Jul-04 00:33N 63°26' E 010°23'0 0.0
2015-Jul-03 23:33N 63°26' E 010°23'0 0.0
2015-Jul-03 22:33N 63°26' E 010°23'0 0.0
2015-Jul-03 21:33N 63°26' E 010°23'0 0.0
2015-Jul-03 20:33N 63°26' E 010°23'0 0.0
2015-Jul-03 19:33N 63°26' E 010°23'0 0.0
2015-Jul-03 18:33N 63°26' E 010°23'0 0.0
2015-Jul-03 17:33N 63°26' E 010°23'0 0.0
2015-Jul-03 16:33N 63°26' E 010°23'0 0.0
2015-Jul-03 15:33N 63°26' E 010°23'0 0.0
2015-Jul-03 14:33N 63°26' E 010°23'0 0.0
2015-Jul-03 13:33N 63°26' E 010°23'0 0.0
2015-Jul-03 12:33N 63°26' E 010°23'0 0.0
2015-Jul-03 11:33N 63°26' E 010°23'0 0.0
2015-Jul-03 10:33N 63°26' E 010°23'0 0.0
2015-Jul-03 09:33N 63°26' E 010°23'0 0.0
2015-Jul-03 08:33N 63°26' E 010°23'0 0.0
2015-Jul-03 07:33N 63°26' E 010°23'0 0.0
2015-Jul-03 06:33N 63°26' E 010°23'0 0.0
2015-Jul-03 05:33N 63°26' E 010°23'0 0.0
2015-Jul-03 04:33N 63°26' E 010°23'0 0.0
2015-Jul-03 03:33N 63°26' E 010°23'0 0.0
2015-Jul-03 02:33N 63°26' E 010°23'0 0.0
2015-Jul-03 01:33N 63°26' E 010°23'0 0.0
2015-Jul-03 00:33N 63°26' E 010°23'0 0.0
2015-Jul-02 23:33N 63°26' E 010°23'0 0.0
2015-Jul-02 22:33N 63°26' E 010°23'0 0.0
2015-Jul-02 21:33N 63°26' E 010°23'0 0.0
2015-Jul-02 20:33N 63°26' E 010°23'0 0.0
2015-Jul-02 19:33N 63°26' E 010°23'0 0.0
2015-Jul-02 18:33N 63°26' E 010°23'0 0.0
2015-Jul-02 17:33N 63°26' E 010°23'0 0.0
2015-Jul-02 16:33N 63°26' E 010°23'0 0.0
2015-Jul-02 15:33N 63°26' E 010°23'0 0.0
2015-Jul-02 14:33N 63°26' E 010°23'0 0.0
2015-Jul-02 13:33N 63°26' E 010°23'0 0.1
2015-Jul-02 12:33N 63°26' E 010°23'0 0.1
2015-Jul-02 11:34N 63°26' E 010°23'0 0.0
2015-Jul-02 10:34N 63°26' E 010°23'0 0.0
2015-Jul-02 09:34N 63°26' E 010°23'0 0.0
2015-Jul-02 08:34N 63°26' E 010°23'0 0.0
2015-Jul-02 07:34N 63°26' E 010°23'0 0.0
2015-Jul-02 06:34N 63°26' E 010°23'0 0.0
2015-Jul-02 05:34N 63°26' E 010°23'0 0.0
2015-Jul-02 04:33N 63°26' E 010°23'0 0.0
2015-Jul-02 03:33N 63°26' E 010°23'0 0.0
2015-Jul-02 02:34N 63°26' E 010°23'0 0.0
2015-Jul-02 01:34N 63°26' E 010°23'0 0.0
2015-Jul-02 00:33N 63°26' E 010°23'0 0.0
2015-Jul-01 23:33N 63°26' E 010°23'0 0.0
2015-Jul-01 22:33N 63°26' E 010°23'0 0.0
2015-Jul-01 21:34N 63°26' E 010°23'0 0.0
2015-Jul-01 20:34N 63°26' E 010°23'0 0.0
2015-Jul-01 19:34N 63°26' E 010°23'0 0.0
2015-Jul-01 18:33N 63°26' E 010°23'0 0.0
2015-Jul-01 17:34N 63°26' E 010°23'0 0.0
2015-Jul-01 16:34N 63°26' E 010°23'0 0.0
2015-Jul-01 15:34N 63°26' E 010°23'0 0.0
2015-Jul-01 14:33N 63°26' E 010°23'0 0.0
2015-Jul-01 13:34N 63°26' E 010°23'0 0.0
2015-Jul-01 12:34N 63°26' E 010°23'0 0.0
2015-Jul-01 11:34N 63°26' E 010°23'0 0.0
2015-Jul-01 10:33N 63°26' E 010°23'0 0.0
2015-Jul-01 09:33N 63°26' E 010°22'0 0.0
2015-Jul-01 08:33N 63°26' E 010°23'0 0.0
2015-Jul-01 07:34N 63°26' E 010°23'0 0.0
2015-Jul-01 06:34N 63°26' E 010°23'0 0.0
2015-Jul-01 05:34N 63°26' E 010°23'0 0.0
2015-Jul-01 04:33N 63°26' E 010°23'0 0.0
2015-Jul-01 03:33N 63°26' E 010°23'0 0.0
2015-Jul-01 02:34N 63°26' E 010°23'0 0.0
2015-Jul-01 01:34N 63°26' E 010°23'0 0.0
2015-Jul-01 00:33N 63°26' E 010°23'0 0.0
2015-Jun-30 23:33N 63°26' E 010°23'0 0.0
2015-Jun-30 22:33N 63°26' E 010°23'0 0.0
2015-Jun-30 21:33N 63°26' E 010°23'0 0.0
2015-Jun-30 20:34N 63°26' E 010°23'0 0.0
2015-Jun-30 19:33N 63°26' E 010°23'0 0.0
2015-Jun-30 18:33N 63°26' E 010°23'0 0.0
2015-Jun-30 17:33N 63°26' E 010°23'0 0.0
2015-Jun-30 16:34N 63°26' E 010°23'0 0.0
2015-Jun-30 15:33N 63°26' E 010°23'0 0.0
2015-Jun-30 14:33N 63°26' E 010°23'0 0.0
2015-Jun-30 13:33N 63°26' E 010°23'0 0.0
2015-Jun-30 12:33N 63°26' E 010°23'0 0.0
2015-Jun-30 11:33N 63°26' E 010°23'0 0.0
2015-Jun-30 10:34N 63°26' E 010°23'0 0.0
2015-Jun-30 09:33N 63°26' E 010°22'0 0.0
2015-Jun-30 08:33N 63°26' E 010°23'0 0.0
2015-Jun-30 07:33N 63°26' E 010°23'0 0.0
2015-Jun-30 06:33N 63°26' E 010°23'0 0.0
2015-Jun-30 05:33N 63°26' E 010°23'0 0.0
2015-Jun-30 04:34N 63°26' E 010°23'0 0.0
2015-Jun-30 03:33N 63°26' E 010°23'0 0.0
2015-Jun-30 02:33N 63°26' E 010°23'0 0.0
2015-Jun-30 01:33N 63°26' E 010°23'0 0.0
2015-Jun-30 00:33N 63°26' E 010°23'0 0.0
2015-Jun-29 23:34N 63°26' E 010°23'1 1.1
2015-Jun-29 22:33N 63°26' E 010°25'1 1.1
2015-Jun-29 21:33N 63°26' E 010°23'0 0.0
2015-Jun-29 20:33N 63°26' E 010°23'0 0.0
2015-Jun-29 19:33N 63°26' E 010°23'0 0.1
2015-Jun-29 18:33N 63°26' E 010°22'0 0.1
2015-Jun-29 17:33N 63°26' E 010°23'0 0.0
2015-Jun-29 16:33N 63°26' E 010°23'0 0.0
2015-Jun-29 15:33N 63°26' E 010°23'0 0.0
2015-Jun-29 14:33N 63°26' E 010°23'0 0.0
2015-Jun-29 13:33N 63°26' E 010°23'0 0.0
2015-Jun-29 12:33N 63°26' E 010°23'0 0.0
2015-Jun-29 11:33N 63°26' E 010°23'0 0.0
2015-Jun-29 09:34N 63°26' E 010°23'0 0.0
2015-Jun-29 08:34N 63°26' E 010°23'0 0.0
2015-Jun-29 07:34N 63°26' E 010°23'0 0.0
2015-Jun-29 06:34N 63°26' E 010°23'0 0.0
2015-Jun-29 05:34N 63°26' E 010°23'0 0.0
2015-Jun-29 04:34N 63°26' E 010°23'0 0.0
2015-Jun-29 03:34N 63°26' E 010°23'0 0.0
2015-Jun-29 02:34N 63°26' E 010°23'0 0.0
2015-Jun-29 01:34N 63°26' E 010°23'0 0.0
2015-Jun-29 00:34N 63°26' E 010°23'0 0.0
2015-Jun-28 23:34N 63°26' E 010°23'0 0.0
2015-Jun-28 22:34N 63°26' E 010°23'0 0.0
2015-Jun-28 21:34N 63°26' E 010°23'0 0.0
2015-Jun-28 20:34N 63°26' E 010°23'0 0.0
2015-Jun-28 19:34N 63°26' E 010°23'0 0.0
2015-Jun-28 18:34N 63°26' E 010°23'0 0.0
2015-Jun-28 17:34N 63°26' E 010°23'0 0.0
2015-Jun-28 16:34N 63°26' E 010°23'0 0.0
2015-Jun-28 15:34N 63°26' E 010°23'0 0.0
2015-Jun-28 14:33N 63°26' E 010°23'0 0.0
2015-Jun-28 13:33N 63°26' E 010°23'1 0.8
2015-Jun-28 12:33N 63°26' E 010°24'5 5.2
2015-Jun-28 11:33N 63°28' E 010°35'6 6.0
2015-Jun-28 10:33N 63°26' E 010°23'0 0.0
2015-Jun-28 09:33N 63°26' E 010°23'0 0.0
2015-Jun-28 08:33N 63°26' E 010°23'0 0.0
2015-Jun-28 07:33N 63°26' E 010°23'0 0.0
2015-Jun-28 06:33N 63°26' E 010°23'0 0.0
2015-Jun-28 05:33N 63°26' E 010°23'0 0.0
2015-Jun-28 04:33N 63°26' E 010°23'0 0.0
2015-Jun-28 03:33N 63°26' E 010°23'0 0.0
2015-Jun-28 02:33N 63°26' E 010°23'0 0.0
2015-Jun-28 01:33N 63°26' E 010°23'0 0.0
2015-Jun-28 00:33N 63°26' E 010°23'0 0.0
2015-Jun-27 23:33N 63°26' E 010°23'0 0.0
2015-Jun-27 22:33N 63°26' E 010°23'0 0.0
2015-Jun-27 21:33N 63°26' E 010°23'0 0.0
2015-Jun-27 20:33N 63°26' E 010°23'0 0.0
2015-Jun-27 19:33N 63°26' E 010°23'0 0.0
2015-Jun-27 18:33N 63°26' E 010°23'0 0.0
2015-Jun-27 17:33N 63°26' E 010°23'0 0.0
2015-Jun-27 16:33N 63°26' E 010°23'0 0.1
2015-Jun-27 15:33N 63°26' E 010°22'1818.3
2015-Jun-27 14:33N 63°40' E 010°49'  
Track history (hours):
 
Tides and Currents Weather Stations Pressure Air Temp Water Temp Dewpoint Dewpoint Depression Visibility Wind Speed Wind Dir Waves Ship Positions

Rescue Uni

Last reported at 2015-Jul-07 12:33 UTC. Time now 2015-Jul-07 13:10 UTC.
Position N 63°26' E 010°23'.

; draft 0.7 m.

Type: SAR. MMSI: 257964900.

Date/timePositionNaut miles runAvg speedWind from/ knotsBaromVisibWave heightAir tempDewpointWater temp
2015-Jul-07 12:33N 63°26' E 010°23'0 0.0
2015-Jul-07 11:33N 63°26' E 010°23'0 0.0
2015-Jul-07 10:34N 63°26' E 010°23'0 0.0
2015-Jul-07 09:33N 63°26' E 010°23'0 0.0
2015-Jul-07 08:33N 63°26' E 010°23'0 0.0
2015-Jul-07 07:33N 63°26' E 010°23'0 0.0
2015-Jul-07 06:33N 63°26' E 010°23'0 0.0
2015-Jul-07 05:34N 63°26' E 010°23'0 0.0
2015-Jul-07 04:34N 63°26' E 010°23'0 0.0
2015-Jul-07 03:34N 63°26' E 010°23'0 0.0
2015-Jul-07 02:33N 63°26' E 010°23'0 0.0
2015-Jul-07 01:34N 63°26' E 010°23'0 0.0
2015-Jul-07 00:34N 63°26' E 010°23'0 0.0
2015-Jul-06 23:34N 63°26' E 010°23'0 0.0
2015-Jul-06 22:33N 63°26' E 010°23'0 0.0
2015-Jul-06 21:33N 63°26' E 010°23'0 0.0
2015-Jul-06 20:34N 63°26' E 010°23'0 0.0
2015-Jul-06 19:34N 63°26' E 010°23'0 0.0
2015-Jul-06 18:34N 63°26' E 010°23'1 1.0
2015-Jul-06 17:34N 63°27' E 010°22'1 1.0
2015-Jul-06 16:33N 63°26' E 010°23'0 0.0
2015-Jul-06 15:33N 63°26' E 010°23'0 0.0
2015-Jul-06 14:33N 63°26' E 010°23'0 0.0
2015-Jul-06 13:33N 63°26' E 010°23'0 0.0
2015-Jul-06 12:33N 63°26' E 010°23'0 0.1
2015-Jul-06 11:33N 63°26' E 010°22'1 1.4
2015-Jul-06 10:33N 63°27' E 010°25'0 0.4
2015-Jul-06 09:34N 63°27' E 010°25'1 1.4
2015-Jul-06 08:34N 63°26' E 010°23'0 0.0
2015-Jul-06 07:34N 63°26' E 010°23'0 0.0
2015-Jul-06 06:34N 63°26' E 010°23'0 0.0
2015-Jul-06 05:33N 63°26' E 010°23'0 0.0
2015-Jul-06 04:33N 63°26' E 010°23'0 0.0
2015-Jul-06 03:34N 63°26' E 010°23'0 0.0
2015-Jul-06 02:34N 63°26' E 010°23'0 0.0
2015-Jul-06 01:34N 63°26' E 010°23'0 0.0
2015-Jul-06 00:34N 63°26' E 010°23'0 0.0
2015-Jul-05 23:33N 63°26' E 010°23'0 0.0
2015-Jul-05 22:34N 63°26' E 010°23'0 0.0
2015-Jul-05 21:34N 63°26' E 010°23'10 9.7
2015-Jul-05 20:33N 63°21' E 010°04'3 2.9
2015-Jul-05 19:33N 63°24' E 010°02'6 6.4
2015-Jul-05 18:34N 63°29' E 009°56'6 5.8
2015-Jul-05 17:34N 63°35' E 009°50'5 4.6
2015-Jul-05 16:29N 63°39' E 009°47'1718.9
2015-Jul-05 15:33N 63°28' E 010°16'4 3.6
2015-Jul-05 14:33N 63°26' E 010°23'0 0.0
2015-Jul-05 13:33N 63°26' E 010°23'0 0.0
2015-Jul-05 12:33N 63°26' E 010°23'0 0.0
2015-Jul-05 11:33N 63°26' E 010°23'0 0.0
2015-Jul-05 10:33N 63°26' E 010°23'0 0.0
2015-Jul-05 09:33N 63°26' E 010°23'0 0.0
2015-Jul-05 08:33N 63°26' E 010°23'0 0.0
2015-Jul-05 07:33N 63°26' E 010°23'0 0.0
2015-Jul-05 06:33N 63°26' E 010°23'0 0.0
2015-Jul-05 05:33N 63°26' E 010°23'0 0.0
2015-Jul-05 04:33N 63°26' E 010°23'0 0.0
2015-Jul-05 03:33N 63°26' E 010°23'0 0.0
2015-Jul-05 02:33N 63°26' E 010°23'0 0.0
2015-Jul-05 01:33N 63°26' E 010°23'1514.6
2015-Jul-05 00:33N 63°38' E 010°41'14 1.8
2015-Jul-04 16:32N 63°48' E 011°03'2828.6
2015-Jul-04 15:33N 63°26' E 010°23'0 0.5
2015-Jul-04 14:33N 63°26' E 010°23'0 0.0
2015-Jul-04 13:33N 63°26' E 010°23'0 0.0
2015-Jul-04 12:33N 63°26' E 010°23'0 0.0
2015-Jul-04 11:33N 63°26' E 010°23'0 0.0
2015-Jul-04 10:33N 63°26' E 010°23'0 0.0
2015-Jul-04 09:33N 63°26' E 010°23'0 0.0
2015-Jul-04 08:33N 63°26' E 010°23'0 0.0
2015-Jul-04 07:33N 63°26' E 010°23'0 0.0
2015-Jul-04 06:33N 63°26' E 010°23'0 0.0
2015-Jul-04 05:33N 63°26' E 010°23'0 0.0
2015-Jul-04 04:33N 63°26' E 010°23'0 0.0
2015-Jul-04 03:33N 63°26' E 010°23'0 0.0
2015-Jul-04 02:33N 63°26' E 010°23'0 0.0
2015-Jul-04 01:33N 63°26' E 010°23'0 0.0
2015-Jul-04 00:33N 63°26' E 010°23'0 0.0
2015-Jul-03 23:33N 63°26' E 010°23'0 0.0
2015-Jul-03 22:33N 63°26' E 010°23'0 0.0
2015-Jul-03 21:33N 63°26' E 010°23'0 0.0
2015-Jul-03 20:33N 63°26' E 010°23'0 0.0
2015-Jul-03 19:33N 63°26' E 010°23'0 0.0
2015-Jul-03 18:33N 63°26' E 010°23'0 0.0
2015-Jul-03 17:33N 63°26' E 010°23'0 0.0
2015-Jul-03 16:33N 63°26' E 010°23'0 0.0
2015-Jul-03 15:33N 63°26' E 010°23'0 0.0
2015-Jul-03 14:33N 63°26' E 010°23'0 0.0
2015-Jul-03 13:33N 63°26' E 010°23'0 0.0
2015-Jul-03 12:33N 63°26' E 010°23'0 0.0
2015-Jul-03 11:33N 63°26' E 010°23'0 0.0
2015-Jul-03 10:33N 63°26' E 010°23'0 0.0
2015-Jul-03 09:33N 63°26' E 010°23'0 0.0
2015-Jul-03 08:33N 63°26' E 010°23'0 0.0
2015-Jul-03 07:33N 63°26' E 010°23'0 0.0
2015-Jul-03 06:33N 63°26' E 010°23'0 0.0
2015-Jul-03 05:33N 63°26' E 010°23'0 0.0
2015-Jul-03 04:33N 63°26' E 010°23'0 0.0
2015-Jul-03 03:33N 63°26' E 010°23'0 0.0
2015-Jul-03 02:33N 63°26' E 010°23'0 0.0
2015-Jul-03 01:33N 63°26' E 010°23'0 0.0
2015-Jul-03 00:33N 63°26' E 010°23'0 0.0
2015-Jul-02 23:33N 63°26' E 010°23'0 0.0
2015-Jul-02 22:33N 63°26' E 010°23'0 0.0
2015-Jul-02 21:33N 63°26' E 010°23'0 0.0
2015-Jul-02 20:33N 63°26' E 010°23'0 0.0
2015-Jul-02 19:33N 63°26' E 010°23'0 0.0
2015-Jul-02 18:33N 63°26' E 010°23'0 0.0
2015-Jul-02 17:33N 63°26' E 010°23'0 0.0
2015-Jul-02 16:33N 63°26' E 010°23'0 0.0
2015-Jul-02 15:33N 63°26' E 010°23'0 0.0
2015-Jul-02 14:33N 63°26' E 010°23'0 0.0
2015-Jul-02 13:33N 63°26' E 010°23'0 0.1
2015-Jul-02 12:33N 63°26' E 010°23'0 0.1
2015-Jul-02 11:34N 63°26' E 010°23'0 0.0
2015-Jul-02 10:34N 63°26' E 010°23'0 0.0
2015-Jul-02 09:34N 63°26' E 010°23'0 0.0
2015-Jul-02 08:34N 63°26' E 010°23'0 0.0
2015-Jul-02 07:34N 63°26' E 010°23'0 0.0
2015-Jul-02 06:34N 63°26' E 010°23'0 0.0
2015-Jul-02 05:34N 63°26' E 010°23'0 0.0
2015-Jul-02 04:33N 63°26' E 010°23'0 0.0
2015-Jul-02 03:33N 63°26' E 010°23'0 0.0
2015-Jul-02 02:34N 63°26' E 010°23'0 0.0
2015-Jul-02 01:34N 63°26' E 010°23'0 0.0
2015-Jul-02 00:33N 63°26' E 010°23'0 0.0
2015-Jul-01 23:33N 63°26' E 010°23'0 0.0
2015-Jul-01 22:33N 63°26' E 010°23'0 0.0
2015-Jul-01 21:34N 63°26' E 010°23'0 0.0
2015-Jul-01 20:34N 63°26' E 010°23'0 0.0
2015-Jul-01 19:34N 63°26' E 010°23'0 0.0
2015-Jul-01 18:33N 63°26' E 010°23'0 0.0
2015-Jul-01 17:34N 63°26' E 010°23'0 0.0
2015-Jul-01 16:34N 63°26' E 010°23'0 0.0
2015-Jul-01 15:34N 63°26' E 010°23'0 0.0
2015-Jul-01 14:33N 63°26' E 010°23'0 0.0
2015-Jul-01 13:34N 63°26' E 010°23'0 0.0
2015-Jul-01 12:34N 63°26' E 010°23'0 0.0
2015-Jul-01 11:34N 63°26' E 010°23'0 0.0
2015-Jul-01 10:33N 63°26' E 010°23'0 0.0
2015-Jul-01 09:33N 63°26' E 010°22'0 0.0
2015-Jul-01 08:33N 63°26' E 010°23'0 0.0
2015-Jul-01 07:34N 63°26' E 010°23'0 0.0
2015-Jul-01 06:34N 63°26' E 010°23'0 0.0
2015-Jul-01 05:34N 63°26' E 010°23'0 0.0
2015-Jul-01 04:33N 63°26' E 010°23'0 0.0
2015-Jul-01 03:33N 63°26' E 010°23'0 0.0
2015-Jul-01 02:34N 63°26' E 010°23'0 0.0
2015-Jul-01 01:34N 63°26' E 010°23'0 0.0
2015-Jul-01 00:33N 63°26' E 010°23'0 0.0
2015-Jun-30 23:33N 63°26' E 010°23'0 0.0
2015-Jun-30 22:33N 63°26' E 010°23'0 0.0
2015-Jun-30 21:33N 63°26' E 010°23'0 0.0
2015-Jun-30 20:34N 63°26' E 010°23'0 0.0
2015-Jun-30 19:33N 63°26' E 010°23'0 0.0
2015-Jun-30 18:33N 63°26' E 010°23'0 0.0
2015-Jun-30 17:33N 63°26' E 010°23'0 0.0
2015-Jun-30 16:34N 63°26' E 010°23'0 0.0
2015-Jun-30 15:33N 63°26' E 010°23'0 0.0
2015-Jun-30 14:33N 63°26' E 010°23'0 0.0
2015-Jun-30 13:33N 63°26' E 010°23'0 0.0
2015-Jun-30 12:33N 63°26' E 010°23'0 0.0
2015-Jun-30 11:33N 63°26' E 010°23'0 0.0
2015-Jun-30 10:34N 63°26' E 010°23'0 0.0
2015-Jun-30 09:33N 63°26' E 010°22'0 0.0
2015-Jun-30 08:33N 63°26' E 010°23'0 0.0
2015-Jun-30 07:33N 63°26' E 010°23'0 0.0
2015-Jun-30 06:33N 63°26' E 010°23'0 0.0
2015-Jun-30 05:33N 63°26' E 010°23'0 0.0
2015-Jun-30 04:34N 63°26' E 010°23'0 0.0
2015-Jun-30 03:33N 63°26' E 010°23'0 0.0
2015-Jun-30 02:33N 63°26' E 010°23'0 0.0
2015-Jun-30 01:33N 63°26' E 010°23'0 0.0
2015-Jun-30 00:33N 63°26' E 010°23'0 0.0
2015-Jun-29 23:34N 63°26' E 010°23'1 1.1
2015-Jun-29 22:33N 63°26' E 010°25'1 1.1
2015-Jun-29 21:33N 63°26' E 010°23'0 0.0
2015-Jun-29 20:33N 63°26' E 010°23'0 0.0
2015-Jun-29 19:33N 63°26' E 010°23'0 0.1
2015-Jun-29 18:33N 63°26' E 010°22'0 0.1
2015-Jun-29 17:33N 63°26' E 010°23'0 0.0
2015-Jun-29 16:33N 63°26' E 010°23'0 0.0
2015-Jun-29 15:33N 63°26' E 010°23'0 0.0
2015-Jun-29 14:33N 63°26' E 010°23'0 0.0
2015-Jun-29 13:33N 63°26' E 010°23'0 0.0
2015-Jun-29 12:33N 63°26' E 010°23'0 0.0
2015-Jun-29 11:33N 63°26' E 010°23'0 0.0
2015-Jun-29 09:34N 63°26' E 010°23'0 0.0
2015-Jun-29 08:34N 63°26' E 010°23'0 0.0
2015-Jun-29 07:34N 63°26' E 010°23'0 0.0
2015-Jun-29 06:34N 63°26' E 010°23'0 0.0
2015-Jun-29 05:34N 63°26' E 010°23'0 0.0
2015-Jun-29 04:34N 63°26' E 010°23'0 0.0
2015-Jun-29 03:34N 63°26' E 010°23'0 0.0
2015-Jun-29 02:34N 63°26' E 010°23'0 0.0
2015-Jun-29 01:34N 63°26' E 010°23'0 0.0
2015-Jun-29 00:34N 63°26' E 010°23'0 0.0
2015-Jun-28 23:34N 63°26' E 010°23'0 0.0
2015-Jun-28 22:34N 63°26' E 010°23'0 0.0
2015-Jun-28 21:34N 63°26' E 010°23'0 0.0
2015-Jun-28 20:34N 63°26' E 010°23'0 0.0
2015-Jun-28 19:34N 63°26' E 010°23'0 0.0
2015-Jun-28 18:34N 63°26' E 010°23'0 0.0
2015-Jun-28 17:34N 63°26' E 010°23'0 0.0
2015-Jun-28 16:34N 63°26' E 010°23'0 0.0
2015-Jun-28 15:34N 63°26' E 010°23'0 0.0
2015-Jun-28 14:33N 63°26' E 010°23'0 0.0
2015-Jun-28 13:33N 63°26' E 010°23'1 0.8
2015-Jun-28 12:33N 63°26' E 010°24'5 5.2
2015-Jun-28 11:33N 63°28' E 010°35'6 6.0
2015-Jun-28 10:33N 63°26' E 010°23'0 0.0
2015-Jun-28 09:33N 63°26' E 010°23'0 0.0
2015-Jun-28 08:33N 63°26' E 010°23'0 0.0
2015-Jun-28 07:33N 63°26' E 010°23'0 0.0
2015-Jun-28 06:33N 63°26' E 010°23'0 0.0
2015-Jun-28 05:33N 63°26' E 010°23'0 0.0
2015-Jun-28 04:33N 63°26' E 010°23'0 0.0
2015-Jun-28 03:33N 63°26' E 010°23'0 0.0
2015-Jun-28 02:33N 63°26' E 010°23'0 0.0
2015-Jun-28 01:33N 63°26' E 010°23'0 0.0
2015-Jun-28 00:33N 63°26' E 010°23'0 0.0
2015-Jun-27 23:33N 63°26' E 010°23'0 0.0
2015-Jun-27 22:33N 63°26' E 010°23'0 0.0
2015-Jun-27 21:33N 63°26' E 010°23'0 0.0
2015-Jun-27 20:33N 63°26' E 010°23'0 0.0
2015-Jun-27 19:33N 63°26' E 010°23'0 0.0
2015-Jun-27 18:33N 63°26' E 010°23'0 0.0
2015-Jun-27 17:33N 63°26' E 010°23'0 0.0
2015-Jun-27 16:33N 63°26' E 010°23'0 0.1
2015-Jun-27 15:33N 63°26' E 010°22'1818.3
2015-Jun-27 14:33N 63°40' E 010°49'  

Dump ship's entire track history